createdAt,value
2023-05-05T00:00:05.091Z,85.38
2023-05-05T00:01:05.110Z,85.79
2023-05-05T00:02:05.065Z,85.89
2023-05-05T00:03:05.145Z,85.83
2023-05-05T00:04:05.074Z,85.99
2023-05-05T00:05:04.999Z,86.75
2023-05-05T00:06:04.990Z,86.65
2023-05-05T00:07:05.008Z,86.75
2023-05-05T00:08:04.985Z,86.34
2023-05-05T00:09:04.942Z,86.55
2023-05-05T00:10:04.948Z,86.75
2023-05-05T00:11:04.920Z,86.34
2023-05-05T00:12:04.912Z,86.44
2023-05-05T00:13:04.949Z,86.55
2023-05-05T00:14:04.879Z,86.55
2023-05-05T00:15:04.891Z,86.34
2023-05-05T00:16:04.859Z,86.04
2023-05-05T00:17:04.859Z,85.83
2023-05-05T00:18:04.854Z,85.93
2023-05-05T00:19:04.813Z,86.04
2023-05-05T00:20:04.915Z,86.04
2023-05-05T00:21:04.806Z,85.93
2023-05-05T00:22:04.770Z,86.24
2023-05-05T00:23:04.764Z,86.04
2023-05-05T00:24:04.753Z,85.72
2023-05-05T00:25:04.770Z,85.63
2023-05-05T00:26:04.718Z,85.72
2023-05-05T00:27:04.711Z,85.83
2023-05-05T00:28:04.697Z,85.72
2023-05-05T00:29:04.720Z,86.18
2023-05-05T00:30:04.860Z,86.58
2023-05-05T00:31:04.694Z,86.48
2023-05-05T00:32:04.645Z,86.69
2023-05-05T00:33:04.756Z,86.48
2023-05-05T00:34:04.646Z,85.93
2023-05-05T00:35:04.608Z,86.04
2023-05-05T00:36:04.582Z,86.04
2023-05-05T00:37:04.572Z,85.72
2023-05-05T00:38:04.555Z,85.72
2023-05-05T00:39:04.564Z,86.14
2023-05-05T00:40:04.622Z,85.72
2023-05-05T00:41:04.509Z,85.83
2023-05-05T00:42:04.516Z,85.52
2023-05-05T00:43:04.506Z,85.42
2023-05-05T00:44:04.506Z,85.22
2023-05-05T00:45:04.483Z,85.22
2023-05-05T00:46:04.480Z,85.01
2023-05-05T00:47:04.472Z,85.42
2023-05-05T00:48:04.496Z,85.11
2023-05-05T00:49:04.487Z,85.01
2023-05-05T00:50:04.504Z,86.07
2023-05-05T00:51:04.475Z,85.66
2023-05-05T00:52:04.423Z,85.56
2023-05-05T00:53:04.386Z,85.87
2023-05-05T00:54:04.355Z,86.28
2023-05-05T00:55:04.360Z,86.07
2023-05-05T00:56:04.354Z,86.18
2023-05-05T00:57:04.335Z,86.48
2023-05-05T00:58:04.455Z,86.38
2023-05-05T00:59:04.288Z,86.18
2023-05-05T01:00:04.292Z,86.38
2023-05-05T01:01:04.307Z,86.48
2023-05-05T01:02:04.385Z,86.48
2023-05-05T01:03:04.298Z,86.18
2023-05-05T01:04:04.237Z,86.18
2023-05-05T01:05:04.246Z,85.97
2023-05-05T01:06:04.215Z,85.77
2023-05-05T01:07:04.180Z,85.66
2023-05-05T01:08:04.191Z,85.77
2023-05-05T01:09:04.156Z,85.97
2023-05-05T01:10:17.966Z,86.18
2023-05-05T01:11:04.123Z,85.87
2023-05-05T01:12:04.108Z,85.77
2023-05-05T01:13:04.221Z,85.56
2023-05-05T01:14:04.071Z,85.36
2023-05-05T01:15:04.063Z,85.25
2023-05-05T01:16:04.067Z,85.15
2023-05-05T01:17:04.055Z,85.15
2023-05-05T01:18:04.074Z,85.36
2023-05-05T01:19:04.016Z,86.28
2023-05-05T01:20:03.994Z,85.91
2023-05-05T01:21:04.000Z,86.11
2023-05-05T01:22:03.983Z,86.01
2023-05-05T01:23:04.034Z,85.46
2023-05-05T01:24:03.949Z,84.84
2023-05-05T01:25:03.962Z,83.88
2023-05-05T01:26:03.947Z,84.19
2023-05-05T01:27:03.903Z,84.29
2023-05-05T01:28:03.896Z,84.19
2023-05-05T01:29:03.900Z,84.19
2023-05-05T01:30:03.882Z,84.70
2023-05-05T01:31:03.917Z,84.70
2023-05-05T01:32:03.890Z,84.74
2023-05-05T01:33:03.846Z,85.05
2023-05-05T01:34:03.856Z,84.84
2023-05-05T01:35:03.828Z,84.95
2023-05-05T01:36:03.797Z,84.84
2023-05-05T01:37:03.792Z,84.84
2023-05-05T01:38:03.742Z,84.74
2023-05-05T01:39:03.760Z,84.23
2023-05-05T01:40:03.747Z,84.64
2023-05-05T01:41:03.743Z,85.25
2023-05-05T01:42:03.701Z,85.25
2023-05-05T01:43:03.690Z,85.36
2023-05-05T01:44:03.697Z,85.25
2023-05-05T01:45:03.693Z,85.36
2023-05-05T01:46:03.658Z,85.46
2023-05-05T01:47:03.638Z,85.50
2023-05-05T01:48:03.749Z,85.39
2023-05-05T01:49:03.589Z,85.30
2023-05-05T01:50:03.594Z,85.09
2023-05-05T01:51:03.574Z,85.30
2023-05-05T01:52:03.592Z,85.60
2023-05-05T01:53:03.552Z,84.23
2023-05-05T01:54:03.528Z,84.33
2023-05-05T01:55:03.524Z,83.20
2023-05-05T01:56:03.573Z,81.22
2023-05-05T01:57:03.495Z,80.33
2023-05-05T01:58:03.478Z,81.35
2023-05-05T01:59:03.482Z,81.59
2023-05-05T02:00:03.470Z,81.79
2023-05-05T02:01:03.486Z,82.10
2023-05-05T02:02:03.633Z,82.86
2023-05-05T02:03:03.508Z,83.17
2023-05-05T02:04:03.457Z,82.55
2023-05-05T02:05:03.405Z,81.63
2023-05-05T02:06:03.426Z,79.30
2023-05-05T02:07:03.383Z,79.37
2023-05-05T02:08:03.353Z,79.68
2023-05-05T02:09:03.332Z,79.61
2023-05-05T02:10:03.310Z,79.88
2023-05-05T02:11:03.314Z,80.43
2023-05-05T02:12:33.784Z,80.02
2023-05-05T02:13:03.339Z,80.43
2023-05-05T02:14:03.324Z,80.74
2023-05-05T02:15:03.298Z,81.04
2023-05-05T02:16:03.295Z,80.12
2023-05-05T02:17:03.295Z,79.20
2023-05-05T02:18:03.281Z,80.22
2023-05-05T02:19:03.222Z,80.22
2023-05-05T02:20:03.253Z,79.82
2023-05-05T02:21:03.172Z,79.10
2023-05-05T02:22:03.154Z,77.83
2023-05-05T02:23:03.181Z,77.63
2023-05-05T02:24:03.140Z,78.45
2023-05-05T02:25:03.129Z,78.75
2023-05-05T02:26:03.137Z,77.63
2023-05-05T02:27:03.110Z,77.22
2023-05-05T02:28:03.071Z,77.08
2023-05-05T02:29:03.073Z,77.70
2023-05-05T02:30:03.087Z,77.39
2023-05-05T02:31:03.075Z,77.39
2023-05-05T02:32:03.041Z,77.29
2023-05-05T02:33:03.084Z,78.24
2023-05-05T02:34:03.030Z,78.75
2023-05-05T02:35:02.997Z,78.24
2023-05-05T02:36:02.976Z,76.88
2023-05-05T02:37:02.957Z,76.47
2023-05-05T02:38:02.987Z,77.08
2023-05-05T02:39:02.963Z,76.37
2023-05-05T02:40:02.947Z,77.39
2023-05-05T02:41:02.925Z,77.70
2023-05-05T02:42:02.940Z,77.94
2023-05-05T02:43:02.893Z,77.94
2023-05-05T02:44:02.880Z,78.24
2023-05-05T02:45:02.880Z,79.06
2023-05-05T02:46:02.933Z,79.20
2023-05-05T02:47:02.835Z,79.61
2023-05-05T02:48:02.884Z,79.61
2023-05-05T02:49:02.800Z,80.12
2023-05-05T02:50:02.818Z,80.36
2023-05-05T02:51:02.761Z,80.67
2023-05-05T02:52:02.770Z,81.08
2023-05-05T02:53:02.748Z,81.08
2023-05-05T02:54:02.840Z,81.43
2023-05-05T02:55:02.741Z,82.14
2023-05-05T02:56:02.752Z,82.14
2023-05-05T02:57:02.696Z,82.04
2023-05-05T02:58:02.692Z,82.35
2023-05-05T02:59:02.679Z,82.55
2023-05-05T03:00:02.672Z,82.59
2023-05-05T03:01:02.639Z,82.69
2023-05-05T03:02:02.621Z,82.59
2023-05-05T03:03:02.728Z,82.79
2023-05-05T03:04:02.645Z,82.79
2023-05-05T03:05:02.689Z,83.34
2023-05-05T03:06:02.612Z,83.34
2023-05-05T03:07:02.562Z,83.65
2023-05-05T03:08:02.660Z,83.55
2023-05-05T03:09:02.559Z,83.76
2023-05-05T03:10:02.516Z,84.17
2023-05-05T03:11:02.516Z,84.41
2023-05-05T03:12:02.511Z,84.20
2023-05-05T03:13:02.508Z,84.31
2023-05-05T03:14:02.496Z,84.10
2023-05-05T03:15:02.474Z,84.10
2023-05-05T03:16:02.479Z,84.10
2023-05-05T03:17:02.471Z,84.20
2023-05-05T03:18:02.479Z,84.20
2023-05-05T03:19:02.399Z,84.31
2023-05-05T03:20:04.354Z,84.20
2023-05-05T03:21:02.377Z,84.72
2023-05-05T03:22:05.132Z,84.72
2023-05-05T03:23:02.348Z,84.72
2023-05-05T03:24:02.329Z,84.82
2023-05-05T03:25:02.357Z,85.03
2023-05-05T03:26:02.346Z,85.13
2023-05-05T03:27:02.307Z,85.17
2023-05-05T03:28:02.277Z,85.27
2023-05-05T03:29:02.260Z,85.47
2023-05-05T03:30:02.284Z,85.27
2023-05-05T03:31:02.243Z,85.27
2023-05-05T03:32:02.281Z,85.58
2023-05-05T03:33:02.270Z,85.47
2023-05-05T03:34:02.241Z,85.58
2023-05-05T03:35:02.190Z,85.58
2023-05-05T03:36:02.195Z,85.68
2023-05-05T03:37:02.193Z,85.68
2023-05-05T03:38:02.147Z,85.78
2023-05-05T03:39:02.143Z,86.19
2023-05-05T03:40:02.123Z,86.30
2023-05-05T03:41:02.120Z,86.19
2023-05-05T03:42:02.090Z,86.50
2023-05-05T03:43:02.101Z,86.65
2023-05-05T03:44:02.099Z,86.71
2023-05-05T03:45:02.060Z,86.60
2023-05-05T03:46:02.059Z,86.40
2023-05-05T03:47:02.047Z,86.50
2023-05-05T03:48:02.101Z,86.60
2023-05-05T03:49:02.013Z,86.60
2023-05-05T03:50:01.993Z,86.75
2023-05-05T03:51:02.021Z,86.75
2023-05-05T03:52:01.962Z,86.54
2023-05-05T03:53:01.941Z,86.75
2023-05-05T03:54:02.002Z,87.16
2023-05-05T03:55:01.929Z,87.16
2023-05-05T03:56:01.930Z,87.05
2023-05-05T03:57:01.882Z,86.85
2023-05-05T03:58:01.912Z,87.05
2023-05-05T03:59:01.882Z,87.05
2023-05-05T04:00:01.858Z,87.16
2023-05-05T04:01:01.857Z,87.37
2023-05-05T04:02:01.835Z,87.05
2023-05-05T04:03:01.930Z,86.85
2023-05-05T04:04:01.842Z,86.85
2023-05-05T04:05:01.834Z,86.95
2023-05-05T04:06:01.756Z,86.91
2023-05-05T04:07:01.787Z,87.32
2023-05-05T04:08:01.740Z,87.12
2023-05-05T04:09:01.730Z,86.81
2023-05-05T04:10:01.713Z,86.81
2023-05-05T04:11:01.759Z,86.71
2023-05-05T04:12:01.728Z,86.71
2023-05-05T04:13:01.697Z,86.91
2023-05-05T04:14:01.661Z,87.22
2023-05-05T04:15:01.645Z,87.43
2023-05-05T04:16:01.731Z,87.53
2023-05-05T04:17:01.651Z,87.53
2023-05-05T04:18:01.612Z,87.32
2023-05-05T04:19:01.609Z,87.02
2023-05-05T04:20:01.655Z,87.32
2023-05-05T04:21:01.587Z,88.04
2023-05-05T04:22:01.557Z,87.70
2023-05-05T04:23:01.560Z,87.73
2023-05-05T04:24:01.552Z,87.32
2023-05-05T04:25:01.549Z,87.28
2023-05-05T04:26:01.518Z,87.70
2023-05-05T04:27:01.524Z,87.49
2023-05-05T04:28:01.494Z,87.08
2023-05-05T04:29:01.458Z,86.87
2023-05-05T04:30:01.450Z,86.98
2023-05-05T04:31:01.493Z,86.87
2023-05-05T04:32:01.441Z,86.77
2023-05-05T04:33:01.438Z,86.87
2023-05-05T04:34:01.400Z,86.87
2023-05-05T04:35:01.383Z,86.66
2023-05-05T04:36:01.373Z,86.52
2023-05-05T04:37:01.396Z,86.42
2023-05-05T04:38:01.332Z,86.63
2023-05-05T04:39:01.372Z,86.83
2023-05-05T04:40:01.318Z,86.63
2023-05-05T04:41:01.298Z,86.73
2023-05-05T04:42:01.318Z,86.73
2023-05-05T04:43:01.284Z,86.42
2023-05-05T04:44:01.262Z,86.73
2023-05-05T04:45:01.273Z,86.93
2023-05-05T04:46:01.272Z,86.73
2023-05-05T04:47:01.231Z,86.42
2023-05-05T04:48:01.319Z,86.73
2023-05-05T04:49:01.184Z,86.93
2023-05-05T04:50:01.208Z,86.73
2023-05-05T04:51:01.171Z,86.73
2023-05-05T04:52:01.164Z,86.73
2023-05-05T04:53:01.135Z,86.63
2023-05-05T04:54:01.142Z,86.52
2023-05-05T04:55:01.115Z,86.32
2023-05-05T04:56:01.152Z,86.32
2023-05-05T04:57:01.087Z,86.63
2023-05-05T04:58:01.094Z,86.42
2023-05-05T04:59:01.071Z,86.52
2023-05-05T05:00:01.078Z,86.22
2023-05-05T05:01:01.032Z,86.52
2023-05-05T05:02:01.080Z,86.52
2023-05-05T05:03:01.095Z,86.52
2023-05-05T05:04:01.033Z,86.63
2023-05-05T05:05:00.984Z,86.73
2023-05-05T05:06:00.988Z,86.52
2023-05-05T05:07:00.965Z,86.93
2023-05-05T05:08:00.975Z,86.93
2023-05-05T05:09:00.965Z,86.83
2023-05-05T05:10:00.967Z,87.04
2023-05-05T05:11:00.922Z,87.04
2023-05-05T05:12:00.891Z,87.24
2023-05-05T05:13:00.922Z,87.71
2023-05-05T05:14:00.858Z,87.61
2023-05-05T05:15:00.852Z,87.61
2023-05-05T05:16:00.858Z,87.51
2023-05-05T05:17:00.839Z,87.51
2023-05-05T05:18:00.844Z,87.20
2023-05-05T05:19:01.757Z,87.30
2023-05-05T05:20:00.772Z,87.37
2023-05-05T05:21:00.778Z,87.26
2023-05-05T05:22:00.770Z,87.06
2023-05-05T05:23:00.741Z,86.65
2023-05-05T05:24:00.745Z,86.44
2023-05-05T05:25:00.719Z,86.14
2023-05-05T05:26:00.694Z,85.48
2023-05-05T05:27:00.710Z,86.20
2023-05-05T05:28:09.441Z,85.69
2023-05-05T05:29:00.667Z,83.70
2023-05-05T05:30:00.653Z,82.98
2023-05-05T05:31:00.669Z,83.50
2023-05-05T05:32:00.640Z,83.87
2023-05-05T05:33:00.622Z,83.66
2023-05-05T05:34:00.594Z,83.05
2023-05-05T05:35:00.602Z,82.09
2023-05-05T05:36:00.583Z,81.38
2023-05-05T05:37:00.534Z,80.87
2023-05-05T05:38:00.549Z,80.73
2023-05-05T05:39:00.536Z,80.42
2023-05-05T05:40:00.594Z,80.38
2023-05-05T05:41:00.501Z,80.58
2023-05-05T05:42:00.473Z,81.10
2023-05-05T05:43:00.497Z,80.89
2023-05-05T05:44:00.481Z,80.79
2023-05-05T05:45:00.448Z,79.97
2023-05-05T05:46:00.452Z,80.18
2023-05-05T05:47:00.407Z,81.30
2023-05-05T05:48:00.443Z,81.87
2023-05-05T05:49:00.396Z,82.59
2023-05-05T05:50:00.369Z,82.18
2023-05-05T05:51:00.363Z,81.57
2023-05-05T05:52:00.334Z,81.23
2023-05-05T05:53:00.353Z,81.32
2023-05-05T05:54:00.347Z,80.10
2023-05-05T05:55:00.305Z,76.84
2023-05-05T05:56:00.296Z,77.21
2023-05-05T05:57:00.283Z,77.82
2023-05-05T05:58:00.289Z,76.97
2023-05-05T05:59:00.254Z,75.34
2023-05-05T06:00:01.995Z,75.34
2023-05-05T06:01:00.239Z,76.01
2023-05-05T06:02:00.323Z,76.53
2023-05-05T06:03:00.538Z,75.92
2023-05-05T06:04:00.293Z,75.92
2023-05-05T06:05:00.191Z,75.98
2023-05-05T06:06:00.190Z,75.78
2023-05-05T06:07:00.176Z,75.57
2023-05-05T06:08:00.135Z,76.08
2023-05-05T06:09:00.141Z,76.59
2023-05-05T06:10:04.817Z,76.49
2023-05-05T06:11:00.132Z,76.59
2023-05-05T06:12:00.066Z,76.69
2023-05-05T06:13:00.140Z,77.00
2023-05-05T06:14:00.196Z,76.69
2023-05-05T06:15:00.046Z,75.64
2023-05-05T06:16:00.072Z,75.33
2023-05-05T06:17:00.020Z,75.54
2023-05-05T06:18:00.062Z,75.43
2023-05-05T06:18:59.981Z,76.25
2023-05-05T06:19:59.977Z,75.13
2023-05-05T06:20:59.950Z,76.56
2023-05-05T06:22:00.039Z,76.15
2023-05-05T06:23:00.154Z,76.04
2023-05-05T06:23:59.916Z,75.64
2023-05-05T06:24:59.915Z,75.60
2023-05-05T06:26:00.033Z,75.60
2023-05-05T06:26:59.869Z,75.09
2023-05-05T06:27:59.889Z,75.30
2023-05-05T06:28:59.884Z,75.30
2023-05-05T06:29:59.834Z,74.89
2023-05-05T06:30:59.871Z,75.20
2023-05-05T06:31:59.819Z,75.40
2023-05-05T06:32:59.888Z,75.77
2023-05-05T06:33:59.819Z,75.98
2023-05-05T06:34:59.792Z,75.87
2023-05-05T06:35:59.762Z,75.37
2023-05-05T06:36:59.736Z,74.65
2023-05-05T06:37:59.732Z,74.45
2023-05-05T06:38:59.746Z,74.72
2023-05-05T06:39:59.699Z,74.31
2023-05-05T06:40:59.699Z,74.62
2023-05-05T06:41:59.678Z,75.09
2023-05-05T06:42:59.653Z,75.29
2023-05-05T06:43:59.634Z,75.40
2023-05-05T06:44:59.669Z,75.49
2023-05-05T06:45:59.621Z,75.70
2023-05-05T06:46:59.722Z,75.19
2023-05-05T06:47:59.591Z,74.18
2023-05-05T06:50:27.184Z,74.18
2023-05-05T06:50:32.531Z,74.18
2023-05-05T06:51:32.512Z,73.77
2023-05-05T06:52:32.511Z,73.57
2023-05-05T06:53:32.505Z,73.26
2023-05-05T06:54:32.519Z,73.67
2023-05-05T06:55:32.473Z,73.94
2023-05-05T06:56:32.443Z,73.63
2023-05-05T06:57:32.456Z,74.04
2023-05-05T06:58:32.432Z,73.53
2023-05-05T06:59:32.461Z,73.43
2023-05-05T07:00:32.481Z,73.83
2023-05-05T07:01:32.372Z,73.83
2023-05-05T07:02:32.413Z,74.04
2023-05-05T07:03:32.409Z,74.04
2023-05-05T07:04:32.356Z,74.14
2023-05-05T07:05:32.367Z,74.34
2023-05-05T07:06:32.393Z,75.05
2023-05-05T07:07:32.318Z,74.31
2023-05-05T07:08:32.305Z,73.70
2023-05-05T07:09:32.327Z,74.01
2023-05-05T07:10:32.265Z,74.41
2023-05-05T07:11:32.279Z,74.10
2023-05-05T07:12:32.281Z,74.10
2023-05-05T07:13:32.237Z,74.31
2023-05-05T07:14:32.245Z,74.10
2023-05-05T07:15:32.222Z,74.71
2023-05-05T07:16:32.216Z,74.71
2023-05-05T07:17:32.258Z,74.58
2023-05-05T07:18:32.160Z,73.66
2023-05-05T07:19:32.170Z,73.46
2023-05-05T07:20:32.171Z,73.26
2023-05-05T07:21:32.157Z,72.61
2023-05-05T07:22:32.105Z,72.11
2023-05-05T07:23:32.169Z,71.40
2023-05-05T07:24:32.076Z,71.80
2023-05-05T07:25:32.054Z,72.58
2023-05-05T07:26:32.073Z,72.17
2023-05-05T07:27:32.092Z,71.06
2023-05-05T07:28:32.102Z,72.08
2023-05-05T07:29:32.021Z,71.84
2023-05-05T07:30:31.996Z,70.83
2023-05-05T07:31:32.024Z,69.31
2023-05-05T07:32:32.046Z,67.65
2023-05-05T07:33:32.024Z,66.44
2023-05-05T07:34:31.950Z,67.85
2023-05-05T07:35:31.937Z,69.34
2023-05-05T07:36:31.923Z,68.53
2023-05-05T07:37:31.906Z,68.94
2023-05-05T07:38:31.919Z,66.00
2023-05-05T07:39:31.892Z,65.56
2023-05-05T07:40:31.890Z,66.47
2023-05-05T07:41:31.870Z,66.47
2023-05-05T07:42:31.865Z,65.33
2023-05-05T07:43:31.820Z,62.81
2023-05-05T07:44:31.841Z,63.21
2023-05-05T07:45:31.797Z,61.87
2023-05-05T07:46:31.824Z,62.37
2023-05-05T07:47:31.852Z,62.47
2023-05-05T07:48:31.748Z,63.68
2023-05-05T07:49:31.793Z,63.65
2023-05-05T07:51:59.649Z,63.45
2023-05-05T07:52:05.030Z,64.26
2023-05-05T07:53:13.727Z,65.44
2023-05-05T07:54:05.051Z,64.94
2023-05-05T07:55:04.989Z,62.38
2023-05-05T07:56:04.946Z,61.77
2023-05-05T07:57:04.929Z,61.57
2023-05-05T07:58:04.896Z,59.83
2023-05-05T07:59:04.926Z,61.04
2023-05-05T08:00:04.892Z,62.35
2023-05-05T08:01:04.885Z,61.11
2023-05-05T08:02:04.856Z,60.10
2023-05-05T08:03:04.908Z,60.71
2023-05-05T08:04:04.882Z,59.27
2023-05-05T08:05:05.067Z,59.27
2023-05-05T08:06:04.856Z,60.48
2023-05-05T08:07:04.788Z,61.69
2023-05-05T08:08:04.790Z,60.15
2023-05-05T08:09:04.786Z,60.65
2023-05-05T08:10:04.810Z,61.16
2023-05-05T08:11:04.735Z,62.54
2023-05-05T08:12:04.716Z,62.34
2023-05-05T08:13:04.771Z,61.83
2023-05-05T08:14:04.694Z,61.33
2023-05-05T08:15:04.736Z,61.90
2023-05-05T08:16:04.726Z,60.19
2023-05-05T08:17:04.651Z,60.49
2023-05-05T08:18:04.645Z,62.71
2023-05-05T08:19:09.743Z,58.98
2023-05-05T08:20:04.621Z,61.17
2023-05-05T08:21:04.625Z,59.46
2023-05-05T08:22:04.601Z,59.96
2023-05-05T08:23:04.574Z,61.24
2023-05-05T08:24:04.553Z,61.34
2023-05-05T08:25:04.553Z,60.74
2023-05-05T08:26:04.583Z,59.43
2023-05-05T08:27:04.533Z,60.41
2023-05-05T08:28:04.500Z,59.60
2023-05-05T08:29:04.499Z,60.11
2023-05-05T08:30:04.501Z,59.27
2023-05-05T08:31:04.574Z,58.67
2023-05-05T08:32:04.446Z,58.87
2023-05-05T08:33:04.501Z,61.29
2023-05-05T08:34:04.466Z,60.25
2023-05-05T08:35:04.419Z,60.45
2023-05-05T08:36:04.404Z,60.22
2023-05-05T08:37:04.420Z,59.12
2023-05-05T08:38:04.444Z,57.89
2023-05-05T08:39:04.356Z,58.39
2023-05-05T08:40:04.361Z,56.18
2023-05-05T08:41:04.361Z,58.39
2023-05-05T08:42:04.352Z,57.28
2023-05-05T08:43:04.311Z,57.56
2023-05-05T08:44:04.337Z,56.76
2023-05-05T08:45:04.311Z,54.15
2023-05-05T08:46:04.317Z,54.75
2023-05-05T08:47:04.375Z,56.63
2023-05-05T08:48:04.262Z,54.22
2023-05-05T08:49:04.265Z,54.02
2023-05-05T08:50:04.211Z,54.82
2023-05-05T08:51:05.520Z,54.82
2023-05-05T08:52:04.209Z,53.72
2023-05-05T08:53:04.262Z,55.43
2023-05-05T08:54:04.175Z,54.22
2023-05-05T08:55:04.150Z,54.00
2023-05-05T08:56:04.118Z,52.39
2023-05-05T08:57:04.139Z,52.89
2023-05-05T08:58:04.149Z,53.89
2023-05-05T08:59:04.091Z,54.50
2023-05-05T09:00:04.075Z,54.20
2023-05-05T09:01:04.133Z,53.09
2023-05-05T09:02:04.107Z,53.69
2023-05-05T09:03:04.352Z,51.97
2023-05-05T09:04:04.057Z,51.17
2023-05-05T09:05:04.002Z,50.26
2023-05-05T09:06:04.054Z,51.37
2023-05-05T09:07:04.060Z,49.96
2023-05-05T09:08:04.012Z,51.17
2023-05-05T09:09:03.936Z,49.64
2023-05-05T09:10:03.996Z,49.44
2023-05-05T09:11:03.995Z,49.44
2023-05-05T09:12:03.906Z,49.44
2023-05-05T09:13:03.986Z,49.24
2023-05-05T09:14:03.907Z,51.64
2023-05-05T09:15:03.869Z,50.74
2023-05-05T09:16:03.864Z,49.54
2023-05-05T09:17:03.871Z,51.22
2023-05-05T09:18:03.929Z,52.62
2023-05-05T09:19:03.855Z,52.42
2023-05-05T09:20:03.818Z,51.29
2023-05-05T09:21:03.798Z,50.79
2023-05-05T09:22:03.789Z,50.59
2023-05-05T09:23:03.800Z,52.00
2023-05-05T09:24:08.168Z,51.77
2023-05-05T09:25:03.744Z,53.47
2023-05-05T09:26:03.734Z,52.14
2023-05-05T09:27:03.760Z,51.45
2023-05-05T09:28:03.707Z,53.14
2023-05-05T09:29:03.684Z,51.75
2023-05-05T09:30:03.713Z,51.75
2023-05-05T09:31:03.762Z,52.04
2023-05-05T09:32:03.689Z,52.04
2023-05-05T09:33:03.710Z,50.84
2023-05-05T09:34:03.628Z,50.15
2023-05-05T09:35:03.663Z,49.44
2023-05-05T09:36:03.640Z,49.55
2023-05-05T09:37:03.596Z,51.75
2023-05-05T09:38:03.574Z,51.82
2023-05-05T09:39:03.601Z,51.92
2023-05-05T09:40:03.552Z,51.59
2023-05-05T09:41:03.536Z,51.29
2023-05-05T09:42:03.580Z,52.07
2023-05-05T09:43:03.527Z,50.37
2023-05-05T09:44:03.539Z,50.45
2023-05-05T09:45:03.519Z,48.85
2023-05-05T09:46:03.473Z,48.05
2023-05-05T09:47:07.211Z,50.62
2023-05-05T09:48:03.500Z,50.02
2023-05-05T09:49:03.432Z,47.71
2023-05-05T09:50:03.450Z,46.91
2023-05-05T09:51:03.394Z,48.91
2023-05-05T09:52:03.409Z,47.59
2023-05-05T09:53:03.403Z,48.49
2023-05-05T09:54:03.384Z,47.39
2023-05-05T09:55:03.391Z,49.38
2023-05-05T09:56:03.359Z,46.27
2023-05-05T09:57:03.440Z,47.17
2023-05-05T09:58:03.355Z,49.46
2023-05-05T09:59:03.281Z,48.66
2023-05-05T10:00:03.312Z,47.86
2023-05-05T10:01:03.257Z,47.49
2023-05-05T10:02:03.281Z,47.29
2023-05-05T10:03:03.411Z,46.89
2023-05-05T10:04:03.218Z,47.02
2023-05-05T10:05:03.239Z,47.31
2023-05-05T10:06:03.194Z,48.80
2023-05-05T10:07:03.187Z,49.10
2023-05-05T10:08:03.188Z,48.68
2023-05-05T10:09:03.166Z,49.08
2023-05-05T10:10:03.145Z,48.19
2023-05-05T10:11:03.121Z,45.70
2023-05-05T10:12:03.163Z,47.77
2023-05-05T10:13:03.150Z,46.67
2023-05-05T10:14:03.082Z,47.34
2023-05-05T10:15:03.117Z,47.05
2023-05-05T10:16:03.071Z,45.53
2023-05-05T10:17:03.049Z,45.83
2023-05-05T10:18:07.676Z,45.83
2023-05-05T10:19:03.017Z,45.01
2023-05-05T10:20:03.032Z,44.62
2023-05-05T10:21:03.019Z,43.50
2023-05-05T10:22:03.032Z,45.89
2023-05-05T10:23:02.969Z,42.61
2023-05-05T10:24:02.958Z,42.69
2023-05-05T10:25:02.946Z,42.29
2023-05-05T10:26:02.961Z,41.99
2023-05-05T10:27:02.945Z,42.09
2023-05-05T10:28:02.911Z,45.27
2023-05-05T10:29:02.923Z,41.09
2023-05-05T10:30:02.901Z,42.19
2023-05-05T10:31:07.663Z,44.77
2023-05-05T10:32:10.281Z,44.15
2023-05-05T10:33:22.211Z,44.75
2023-05-05T10:34:03.031Z,41.46
2023-05-05T10:35:02.820Z,41.75
2023-05-05T10:36:02.828Z,40.56
2023-05-05T10:37:02.806Z,42.05
2023-05-05T10:38:02.855Z,43.34
2023-05-05T10:39:02.796Z,41.58
2023-05-05T10:40:02.784Z,42.49
2023-05-05T10:41:02.741Z,41.30
2023-05-05T10:42:02.775Z,41.60
2023-05-05T10:43:02.744Z,40.72
2023-05-05T10:44:04.430Z,41.63
2023-05-05T10:45:02.702Z,42.23
2023-05-05T10:46:02.734Z,41.63
2023-05-05T10:47:02.659Z,43.42
2023-05-05T10:48:02.717Z,44.42
2023-05-05T10:49:02.641Z,46.48
2023-05-05T10:50:02.627Z,47.38
2023-05-05T10:51:02.727Z,45.56
2023-05-05T10:52:02.618Z,44.97
2023-05-05T10:53:02.691Z,44.87
2023-05-05T10:54:02.595Z,43.68
2023-05-05T10:55:02.566Z,44.48
2023-05-05T10:56:02.572Z,44.27
2023-05-05T10:57:02.566Z,43.78
2023-05-05T10:58:02.516Z,43.90
2023-05-05T10:59:02.520Z,44.40
2023-05-05T11:00:02.500Z,45.19
2023-05-05T11:01:02.628Z,44.81
2023-05-05T11:02:02.480Z,44.42
2023-05-05T11:03:02.508Z,43.92
2023-05-05T11:04:02.512Z,43.62
2023-05-05T11:05:02.481Z,43.74
2023-05-05T11:06:02.415Z,44.84
2023-05-05T11:07:02.394Z,44.44
2023-05-05T11:08:02.483Z,45.14
2023-05-05T11:09:02.369Z,45.06
2023-05-05T11:10:02.382Z,45.36
2023-05-05T11:11:02.380Z,46.15
2023-05-05T11:12:02.363Z,46.25
2023-05-05T11:13:02.441Z,46.65
2023-05-05T11:14:02.324Z,45.95
2023-05-05T11:15:02.301Z,46.65
2023-05-05T11:16:02.285Z,46.84
2023-05-05T11:17:02.419Z,45.97
2023-05-05T11:18:05.880Z,45.75
2023-05-05T11:19:02.269Z,46.65
2023-05-05T11:20:02.238Z,46.65
2023-05-05T11:21:02.206Z,46.55
2023-05-05T11:22:02.198Z,47.42
2023-05-05T11:23:02.270Z,48.02
2023-05-05T11:24:02.181Z,47.10
2023-05-05T11:25:02.173Z,45.01
2023-05-05T11:26:02.170Z,44.99
2023-05-05T11:27:02.131Z,46.98
2023-05-05T11:28:02.156Z,44.70
2023-05-05T11:29:02.120Z,44.79
2023-05-05T11:30:02.099Z,44.81
2023-05-05T11:31:02.148Z,45.41
2023-05-05T11:32:02.090Z,45.31
2023-05-05T11:33:02.079Z,44.62
2023-05-05T11:34:02.054Z,43.72
2023-05-05T11:35:02.028Z,44.24
2023-05-05T11:36:05.082Z,44.93
2023-05-05T11:37:02.041Z,45.71
2023-05-05T11:38:01.992Z,45.79
2023-05-05T11:39:02.019Z,45.76
2023-05-05T11:40:02.027Z,44.07
2023-05-05T11:41:01.945Z,44.65
2023-05-05T11:42:06.598Z,44.25
2023-05-05T11:43:01.944Z,45.12
2023-05-05T11:44:01.939Z,42.86
2023-05-05T11:45:01.909Z,43.24
2023-05-05T11:46:01.899Z,43.24
2023-05-05T11:47:04.720Z,42.85
2023-05-05T11:48:01.884Z,43.14
2023-05-05T11:49:01.846Z,42.94
2023-05-05T11:50:01.854Z,45.42
2023-05-05T11:51:01.813Z,42.65
2023-05-05T11:52:01.848Z,42.17
2023-05-05T11:53:01.795Z,43.66
2023-05-05T11:54:01.775Z,42.47
2023-05-05T11:55:01.829Z,42.88
2023-05-05T11:56:01.742Z,43.28
2023-05-05T11:57:01.784Z,42.39
2023-05-05T11:59:29.221Z,43.28
2023-05-05T11:59:34.574Z,43.66
2023-05-05T12:00:34.616Z,44.45
2023-05-05T12:01:34.571Z,43.96
2023-05-05T12:02:34.636Z,42.15
2023-05-05T12:03:34.667Z,41.85
2023-05-05T12:04:34.520Z,41.36
2023-05-05T12:05:36.671Z,43.71
2023-05-05T12:06:34.540Z,42.52
2023-05-05T12:07:34.468Z,41.22
2023-05-05T12:08:34.456Z,41.31
2023-05-05T12:09:34.456Z,41.31
2023-05-05T12:10:34.430Z,40.23
2023-05-05T12:11:34.434Z,42.50
2023-05-05T12:12:34.429Z,42.60
2023-05-05T12:13:34.488Z,41.22
2023-05-05T12:14:34.386Z,42.41
2023-05-05T12:15:34.366Z,41.39
2023-05-05T12:16:34.382Z,41.39
2023-05-05T12:17:34.366Z,41.47
2023-05-05T12:18:34.350Z,42.36
2023-05-05T12:19:34.321Z,41.28
2023-05-05T12:20:34.330Z,41.85
2023-05-05T12:21:34.301Z,41.46
2023-05-05T12:22:34.353Z,40.55
2023-05-05T12:23:34.311Z,40.94
2023-05-05T12:24:34.239Z,42.03
2023-05-05T12:25:34.245Z,42.62
2023-05-05T12:26:34.224Z,42.50
2023-05-05T12:27:34.203Z,41.91
2023-05-05T12:28:34.226Z,42.11
2023-05-05T12:29:34.179Z,41.71
2023-05-05T12:30:34.195Z,41.20
2023-05-05T12:31:34.188Z,40.70
2023-05-05T12:32:34.135Z,41.39
2023-05-05T12:33:34.147Z,41.10
2023-05-05T12:34:34.207Z,41.00
2023-05-05T12:35:34.109Z,40.50
2023-05-05T12:36:34.090Z,41.39
2023-05-05T12:37:34.090Z,40.39
2023-05-05T12:38:34.096Z,40.78
2023-05-05T12:39:34.069Z,41.77
2023-05-05T12:40:34.027Z,42.56
2023-05-05T12:41:34.016Z,40.66
2023-05-05T12:42:34.016Z,40.37
2023-05-05T12:43:39.369Z,40.17
2023-05-05T12:44:34.013Z,39.87
2023-05-05T12:45:33.970Z,40.17
2023-05-05T12:46:34.043Z,40.45
2023-05-05T12:47:34.008Z,40.35
2023-05-05T12:50:51.429Z,40.15
2023-05-05T12:51:52.433Z,38.89
2023-05-05T12:52:52.382Z,39.97
2023-05-05T12:53:52.394Z,40.96
2023-05-05T12:54:54.644Z,40.66
2023-05-05T12:55:52.356Z,40.47